createdAt,value
2022-08-01T00:00:09.070Z,99538.09
2022-08-01T00:02:39.054Z,99534.34
2022-08-01T00:05:07.075Z,99534.91
2022-08-01T00:07:37.947Z,99539.03
2022-08-01T00:10:06.351Z,99538.41
2022-08-01T00:12:33.596Z,99536.53
2022-08-01T00:15:01.026Z,99532.62
2022-08-01T00:17:28.553Z,99528.03
2022-08-01T00:19:55.735Z,99533.25
2022-08-01T00:22:22.936Z,99529.34
2022-08-01T00:24:50.482Z,99526.63
2022-08-01T00:27:17.639Z,99527.28
2022-08-01T00:30:04.725Z,99517.09
2022-08-01T00:32:33.249Z,99519.34
2022-08-01T00:35:00.407Z,99516.81
2022-08-01T00:37:27.575Z,99514.91
2022-08-01T00:39:55.049Z,99512.25
2022-08-01T00:42:22.219Z,99515.91
2022-08-01T00:44:49.452Z,99514.78
2022-08-01T00:47:16.973Z,99512.97
2022-08-01T00:49:44.136Z,99504.28
2022-08-01T00:52:11.326Z,99515.97
2022-08-01T00:54:38.809Z,99510.19
2022-08-01T00:57:10.036Z,99511.47
2022-08-01T00:59:38.040Z,99506.06
2022-08-01T01:02:15.305Z,99508.09
2022-08-01T01:04:43.628Z,99508.97
2022-08-01T01:07:14.834Z,99513.69
2022-08-01T01:09:41.943Z,99512.66
2022-08-01T01:12:12.264Z,99517.16
2022-08-01T01:14:47.177Z,99509.72
2022-08-01T01:17:17.920Z,99524.94
2022-08-01T01:20:05.609Z,99521.22
2022-08-01T01:22:38.520Z,99516.22
2022-08-01T01:25:10.949Z,99519.53
2022-08-01T01:27:44.372Z,99515.34
2022-08-01T01:30:11.906Z,99516.53
2022-08-01T01:32:58.128Z,99520.28
2022-08-01T01:35:26.157Z,99519.91
2022-08-01T01:37:57.402Z,99519.00
2022-08-01T01:40:24.821Z,99509.94
2022-08-01T01:42:52.759Z,99515.09
2022-08-01T01:45:19.944Z,99510.53
2022-08-01T01:47:47.137Z,99505.00
2022-08-01T01:50:14.607Z,99516.09
2022-08-01T01:52:41.876Z,99510.78
2022-08-01T01:55:09.398Z,99506.81
2022-08-01T01:57:37.409Z,99501.84
2022-08-01T02:00:06.962Z,99502.84
2022-08-01T02:02:35.097Z,99503.94
2022-08-01T02:05:03.023Z,99506.09
2022-08-01T02:07:30.251Z,99504.28
2022-08-01T02:09:57.422Z,99493.09
2022-08-01T02:12:25.413Z,99493.53
2022-08-01T02:14:53.592Z,99492.91
2022-08-01T02:17:21.124Z,99484.41
2022-08-01T02:19:48.590Z,99487.69
2022-08-01T02:22:18.082Z,99482.97
2022-08-01T02:24:56.597Z,99476.56
2022-08-01T02:27:26.037Z,99484.59
2022-08-01T02:29:53.180Z,99486.28
2022-08-01T02:32:24.923Z,99484.69
2022-08-01T02:34:52.438Z,99480.09
2022-08-01T02:37:19.755Z,99479.59
2022-08-01T02:39:47.613Z,99488.28
2022-08-01T02:42:15.074Z,99488.19
2022-08-01T02:44:42.801Z,99493.94
2022-08-01T02:47:11.298Z,99484.56
2022-08-01T02:49:40.175Z,99487.03
2022-08-01T02:52:09.428Z,99484.97
2022-08-01T02:54:36.903Z,99483.81
2022-08-01T02:57:04.749Z,99477.63
2022-08-01T02:59:33.890Z,99474.31
2022-08-01T03:02:01.328Z,99466.41
2022-08-01T03:04:30.713Z,99464.38
2022-08-01T03:06:59.558Z,99468.81
2022-08-01T03:09:27.505Z,99469.09
2022-08-01T03:11:55.027Z,99466.41
2022-08-01T03:14:22.239Z,99466.47
2022-08-01T03:16:50.157Z,99461.81
2022-08-01T03:19:17.621Z,99466.34
2022-08-01T03:21:44.845Z,99462.00
2022-08-01T03:24:12.098Z,99462.03
2022-08-01T03:26:39.714Z,99464.94
2022-08-01T03:29:07.476Z,99461.19
2022-08-01T03:31:39.165Z,99460.13
2022-08-01T03:34:06.688Z,99458.47
2022-08-01T03:36:34.722Z,99455.66
2022-08-01T03:39:02.407Z,99457.97
2022-08-01T03:41:30.796Z,99459.16
2022-08-01T03:44:05.213Z,99462.69
2022-08-01T03:46:46.438Z,99458.63
2022-08-01T03:49:18.542Z,99460.00
2022-08-01T03:51:46.495Z,99468.53
2022-08-01T03:54:13.666Z,99465.00
2022-08-01T03:56:40.845Z,99464.56
2022-08-01T03:59:08.478Z,99470.16
2022-08-01T04:01:35.845Z,99476.91
2022-08-01T04:04:06.076Z,99478.41
2022-08-01T04:06:33.290Z,99486.47
2022-08-01T04:09:00.584Z,99485.19
2022-08-01T04:11:28.756Z,99485.44
2022-08-01T04:13:56.112Z,99484.00
2022-08-01T04:16:24.983Z,99488.38
2022-08-01T04:18:52.685Z,99495.66
2022-08-01T04:21:22.812Z,99505.66
2022-08-01T04:23:51.641Z,99493.62
2022-08-01T04:26:21.067Z,99501.91
2022-08-01T04:28:48.295Z,99500.25
2022-08-01T04:31:15.475Z,99497.56
2022-08-01T04:33:43.705Z,99492.16
2022-08-01T04:36:11.022Z,99493.62
2022-08-01T04:38:38.212Z,99492.38
2022-08-01T04:41:09.004Z,99498.72
2022-08-01T04:43:39.829Z,99496.00
2022-08-01T04:46:07.981Z,99490.13
2022-08-01T04:48:35.870Z,99497.97
2022-08-01T04:51:03.022Z,99492.22
2022-08-01T04:53:33.404Z,99496.22
2022-08-01T04:56:01.605Z,99496.78
2022-08-01T04:58:28.777Z,99500.09
2022-08-01T05:00:56.323Z,99493.41
2022-08-01T05:03:23.532Z,99492.97
2022-08-01T05:05:50.711Z,99502.00
2022-08-01T05:08:18.149Z,99504.78
2022-08-01T05:10:45.342Z,99502.00
2022-08-01T05:13:12.508Z,99504.50
2022-08-01T05:15:39.941Z,99503.31
2022-08-01T05:18:08.794Z,99497.13
2022-08-01T05:20:38.011Z,99493.53
2022-08-01T05:23:06.082Z,99496.50
2022-08-01T05:25:56.045Z,99494.91
2022-08-01T05:28:20.727Z,99496.50
2022-08-01T05:30:47.937Z,99505.53
2022-08-01T05:33:15.134Z,99495.09
2022-08-01T05:35:48.065Z,99495.56
2022-08-01T05:38:16.671Z,99495.75
2022-08-01T05:40:44.124Z,99497.44
2022-08-01T05:43:11.379Z,99491.53
2022-08-01T05:45:38.560Z,99494.97
2022-08-01T05:48:06.026Z,99497.75
2022-08-01T05:50:33.554Z,99492.56
2022-08-01T05:53:00.758Z,99490.75
2022-08-01T05:55:28.220Z,99492.81
2022-08-01T05:57:55.381Z,99501.69
2022-08-01T06:00:22.593Z,99497.47
2022-08-01T06:02:50.055Z,99500.78
2022-08-01T06:05:17.255Z,99494.09
2022-08-01T06:07:44.473Z,99497.91
2022-08-01T06:10:11.960Z,99497.91
2022-08-01T06:12:39.177Z,99505.87
2022-08-01T06:15:06.657Z,99508.88
2022-08-01T06:17:34.283Z,99503.91
2022-08-01T06:20:01.468Z,99513.00
2022-08-01T06:22:28.798Z,99512.53
2022-08-01T06:24:56.378Z,99512.25
2022-08-01T06:27:25.829Z,99517.91
2022-08-01T06:29:55.992Z,99507.75
2022-08-01T06:32:27.516Z,99524.75
2022-08-01T06:34:55.395Z,99516.03
2022-08-01T06:37:22.783Z,99514.44
2022-08-01T06:39:50.785Z,99523.94
2022-08-01T06:42:18.613Z,99519.88
2022-08-01T06:44:46.180Z,99513.81
2022-08-01T06:47:13.643Z,99519.34
2022-08-01T06:49:40.853Z,99510.12
2022-08-01T06:52:08.521Z,99517.94
2022-08-01T06:54:36.318Z,99521.81
2022-08-01T06:57:05.977Z,99509.06
2022-08-01T06:59:33.231Z,99526.50
2022-08-01T07:02:02.046Z,99521.19
2022-08-01T07:04:29.230Z,99516.66
2022-08-01T07:06:56.522Z,99507.75
2022-08-01T07:09:24.019Z,99515.53
2022-08-01T07:11:53.348Z,99511.56
2022-08-01T07:14:21.238Z,99509.22
2022-08-01T07:16:48.798Z,99512.91
2022-08-01T07:19:15.991Z,99514.97
2022-08-01T07:21:43.311Z,99525.78
2022-08-01T07:24:14.584Z,99518.47
2022-08-01T07:26:52.318Z,99513.19
2022-08-01T07:29:25.122Z,99514.44
2022-08-01T07:31:55.976Z,99511.66
2022-08-01T07:34:24.084Z,99522.56
2022-08-01T07:36:51.631Z,99526.63
2022-08-01T07:39:18.817Z,99530.88
2022-08-01T07:42:04.773Z,99533.59
2022-08-01T07:44:33.505Z,99532.41
2022-08-01T07:47:01.285Z,99533.69
2022-08-01T07:49:28.658Z,99529.91
2022-08-01T07:52:03.391Z,99536.44
2022-08-01T07:54:33.417Z,99532.88
2022-08-01T07:57:02.130Z,99531.53
2022-08-01T07:59:29.311Z,99537.19
2022-08-01T08:01:56.849Z,99534.31
2022-08-01T08:04:24.392Z,99539.47
2022-08-01T08:06:51.872Z,99528.97
2022-08-01T08:09:19.089Z,99532.88
2022-08-01T08:11:48.136Z,99534.13
2022-08-01T08:14:16.106Z,99538.19
2022-08-01T08:16:43.729Z,99536.47
2022-08-01T08:19:11.294Z,99541.41
2022-08-01T08:21:38.869Z,99537.94
2022-08-01T08:24:26.632Z,99541.09
2022-08-01T08:26:59.452Z,99551.50
2022-08-01T08:29:27.500Z,99547.38
2022-08-01T08:31:56.933Z,99544.91
2022-08-01T08:34:24.496Z,99553.09
2022-08-01T08:36:51.703Z,99548.03
2022-08-01T08:39:20.060Z,99552.78
2022-08-01T08:41:49.453Z,99553.69
2022-08-01T08:44:17.389Z,99553.72
2022-08-01T08:46:46.314Z,99556.03
2022-08-01T08:49:15.297Z,99561.34
2022-08-01T08:51:42.705Z,99559.63
2022-08-01T08:54:11.823Z,99562.09
2022-08-01T08:56:39.519Z,99562.59
2022-08-01T08:59:06.741Z,99554.69
2022-08-01T09:01:34.591Z,99559.03
2022-08-01T09:04:02.845Z,99566.37
2022-08-01T09:06:30.858Z,99555.25
2022-08-01T09:08:58.449Z,99564.97
2022-08-01T09:11:25.664Z,99564.88
2022-08-01T09:14:04.835Z,99557.31
2022-08-01T09:16:32.900Z,99553.59
2022-08-01T09:19:39.471Z,99557.66
2022-08-01T09:22:11.691Z,99561.16
2022-08-01T09:24:40.338Z,99560.06
2022-08-01T09:27:22.147Z,99558.69
2022-08-01T09:30:00.662Z,99562.53
2022-08-01T09:32:35.990Z,99564.34
2022-08-01T09:35:22.348Z,99555.75
2022-08-01T09:37:49.798Z,99549.06
2022-08-01T09:40:35.536Z,99550.22
2022-08-01T09:43:15.063Z,99556.25
2022-08-01T09:45:45.645Z,99561.81
2022-08-01T09:48:13.568Z,99544.94
2022-08-01T09:50:42.294Z,99549.44
2022-08-01T09:53:10.101Z,99548.81
2022-08-01T09:55:55.522Z,99550.25
2022-08-01T09:58:22.697Z,99553.75
2022-08-01T10:01:04.099Z,99542.38
2022-08-01T10:03:31.622Z,99540.16
2022-08-01T10:05:59.543Z,99542.78
2022-08-01T10:08:27.518Z,99548.72
2022-08-01T10:11:06.435Z,99543.31
2022-08-01T10:13:36.383Z,99545.31
2022-08-01T10:16:04.702Z,99546.69
2022-08-01T10:18:34.236Z,99550.91
2022-08-01T10:21:01.938Z,99547.91
2022-08-01T10:23:40.722Z,99546.81
2022-08-01T10:26:08.993Z,99544.28
2022-08-01T10:28:39.250Z,99541.94
2022-08-01T10:31:13.195Z,99537.59
2022-08-01T10:33:52.417Z,99540.12
2022-08-01T10:36:25.376Z,99541.00
2022-08-01T10:38:56.750Z,99525.66
2022-08-01T10:41:24.409Z,99527.66
2022-08-01T10:43:52.688Z,99528.69
2022-08-01T10:46:20.550Z,99528.56
2022-08-01T10:48:52.219Z,99525.31
2022-08-01T10:51:21.430Z,99526.47
2022-08-01T10:53:49.478Z,99529.78
2022-08-01T10:56:18.253Z,99524.44
2022-08-01T10:58:45.911Z,99522.56
2022-08-01T11:01:16.310Z,99521.37
2022-08-01T11:04:01.353Z,99517.44
2022-08-01T11:06:29.206Z,99521.09
2022-08-01T11:08:57.727Z,99512.78
2022-08-01T11:11:28.837Z,99509.59
2022-08-01T11:14:08.090Z,99510.63
2022-08-01T11:16:37.121Z,99511.81
2022-08-01T11:19:05.046Z,99507.63
2022-08-01T11:21:58.063Z,99493.34
2022-08-01T11:24:46.130Z,99494.28
2022-08-01T11:27:23.524Z,99489.16
2022-08-01T11:30:09.591Z,99497.31
2022-08-01T11:33:06.904Z,99511.56
2022-08-01T11:35:35.844Z,99502.22
2022-08-01T11:38:21.873Z,99499.78
2022-08-01T11:40:49.354Z,99493.97
2022-08-01T11:43:17.938Z,99491.78
2022-08-01T11:45:48.100Z,99501.00
2022-08-01T11:48:19.078Z,99491.81
2022-08-01T11:50:46.274Z,99483.75
2022-08-01T11:53:15.627Z,99489.59
2022-08-01T11:55:55.766Z,99491.28
2022-08-01T11:58:27.742Z,99493.97
2022-08-01T12:00:58.536Z,99490.19
2022-08-01T12:03:33.486Z,99505.59
2022-08-01T12:06:01.300Z,99499.53
2022-08-01T12:08:29.589Z,99498.41
2022-08-01T12:11:02.023Z,99497.87
2022-08-01T12:13:40.077Z,99496.47
2022-08-01T12:16:10.680Z,99502.81
2022-08-01T12:18:41.554Z,99496.25
2022-08-01T12:21:08.781Z,99506.09
2022-08-01T12:23:35.975Z,99495.66
2022-08-01T12:26:05.040Z,99506.09
2022-08-01T12:28:39.464Z,99487.72
2022-08-01T12:31:06.901Z,99495.69
2022-08-01T12:33:35.258Z,99483.06
2022-08-01T12:36:02.495Z,99493.50
2022-08-01T12:38:31.118Z,99491.03
2022-08-01T12:40:58.297Z,99491.78
2022-08-01T12:43:28.711Z,99491.81
2022-08-01T12:45:58.002Z,99485.78
2022-08-01T12:48:25.773Z,99493.09
2022-08-01T12:50:58.456Z,99488.47
2022-08-01T12:53:27.000Z,99492.25
2022-08-01T12:56:07.258Z,99480.63
2022-08-01T12:58:34.855Z,99477.16
2022-08-01T13:01:06.034Z,99476.50
2022-08-01T13:03:33.271Z,99471.84
2022-08-01T13:06:01.785Z,99473.78
2022-08-01T13:08:33.123Z,99475.25
2022-08-01T13:11:05.738Z,99476.00
2022-08-01T13:13:38.854Z,99471.84
2022-08-01T13:16:06.540Z,99473.69
2022-08-01T13:18:34.784Z,99469.72
2022-08-01T13:21:09.417Z,99472.47
2022-08-01T13:24:01.954Z,99478.38
2022-08-01T13:26:38.207Z,99473.88
2022-08-01T13:29:06.493Z,99468.81
2022-08-01T13:31:34.440Z,99474.84
2022-08-01T13:34:01.698Z,99468.94
2022-08-01T13:36:29.633Z,99474.41
2022-08-01T13:39:15.497Z,99466.75
2022-08-01T13:41:43.191Z,99466.75
2022-08-01T13:44:11.539Z,99469.72
2022-08-01T13:46:39.381Z,99458.38
2022-08-01T13:49:17.513Z,99455.25
2022-08-01T13:51:47.488Z,99458.06
2022-08-01T13:54:14.935Z,99459.84
2022-08-01T13:56:42.756Z,99447.31
2022-08-01T13:59:09.928Z,99440.03
2022-08-01T14:01:37.201Z,99449.53
2022-08-01T14:04:04.789Z,99454.78
2022-08-01T14:06:32.400Z,99460.84
2022-08-01T14:08:59.594Z,99443.22
2022-08-01T14:11:30.577Z,99444.03
2022-08-01T14:14:04.799Z,99440.22
2022-08-01T14:16:35.904Z,99435.84
2022-08-01T14:19:04.116Z,99438.25
2022-08-01T14:21:32.350Z,99443.06
2022-08-01T14:23:59.824Z,99444.44
2022-08-01T14:26:27.038Z,99448.97
2022-08-01T14:28:54.325Z,99444.44
2022-08-01T14:31:21.783Z,99443.31
2022-08-01T14:33:48.950Z,99441.50
2022-08-01T14:36:29.583Z,99446.84
2022-08-01T14:39:00.038Z,99440.69
2022-08-01T14:41:31.330Z,99444.06
2022-08-01T14:44:00.646Z,99442.88
2022-08-01T14:46:27.870Z,99446.84
2022-08-01T14:48:55.445Z,99437.94
2022-08-01T14:51:22.983Z,99440.81
2022-08-01T14:53:52.272Z,99446.72
2022-08-01T14:56:20.568Z,99436.63
2022-08-01T14:58:48.689Z,99444.09
2022-08-01T15:01:16.175Z,99444.47
2022-08-01T15:03:43.630Z,99436.87
2022-08-01T15:06:12.475Z,99446.56
2022-08-01T15:08:39.721Z,99445.81
2022-08-01T15:11:07.018Z,99432.81
2022-08-01T15:13:37.094Z,99439.25
2022-08-01T15:16:06.528Z,99447.41
2022-08-01T15:18:34.841Z,99450.25
2022-08-01T15:21:02.267Z,99451.38
2022-08-01T15:23:29.758Z,99451.59
2022-08-01T15:25:57.190Z,99437.66
2022-08-01T15:28:24.391Z,99448.38
2022-08-01T15:30:51.552Z,99454.47
2022-08-01T15:33:19.046Z,99457.12
2022-08-01T15:35:46.247Z,99452.63
2022-08-01T15:38:13.433Z,99449.44
2022-08-01T15:40:40.933Z,99449.28
2022-08-01T15:43:08.196Z,99442.84
2022-08-01T15:45:49.809Z,99449.47
2022-08-01T15:48:17.168Z,99451.59
2022-08-01T15:50:44.688Z,99457.72
2022-08-01T15:53:11.937Z,99454.22
2022-08-01T15:55:39.790Z,99449.63
2022-08-01T15:58:07.619Z,99451.53
2022-08-01T16:00:38.877Z,99452.59
2022-08-01T16:03:07.878Z,99447.03
2022-08-01T16:05:42.515Z,99445.28
2022-08-01T16:08:12.100Z,99441.00
2022-08-01T16:10:39.438Z,99440.34
2022-08-01T16:13:07.570Z,99450.00
2022-08-01T16:15:39.084Z,99443.84
2022-08-01T16:18:07.452Z,99452.87
2022-08-01T16:20:35.169Z,99451.56
2022-08-01T16:23:02.355Z,99450.06
2022-08-01T16:25:29.515Z,99449.06
2022-08-01T16:27:57.034Z,99445.69
2022-08-01T16:30:24.250Z,99450.59
2022-08-01T16:32:54.245Z,99447.84
2022-08-01T16:35:31.979Z,99456.09
2022-08-01T16:38:04.558Z,99447.63
2022-08-01T16:40:46.289Z,99455.53
2022-08-01T16:43:14.475Z,99449.03
2022-08-01T16:45:43.205Z,99448.41
2022-08-01T16:48:12.242Z,99447.31
2022-08-01T16:50:39.664Z,99441.72
2022-08-01T16:53:07.129Z,99449.25
2022-08-01T16:55:50.392Z,99453.88
2022-08-01T16:58:27.847Z,99460.97
2022-08-01T17:00:56.671Z,99458.03
2022-08-01T17:03:46.766Z,99452.59
2022-08-01T17:06:15.341Z,99447.69
2022-08-01T17:08:47.041Z,99456.69
2022-08-01T17:11:15.037Z,99464.62
2022-08-01T17:13:42.863Z,99449.03
2022-08-01T17:16:10.460Z,99455.06
2022-08-01T17:18:37.679Z,99452.25
2022-08-01T17:21:04.906Z,99461.88
2022-08-01T17:23:32.430Z,99459.47
2022-08-01T17:25:59.632Z,99469.31
2022-08-01T17:28:27.070Z,99465.72
2022-08-01T17:30:54.652Z,99469.88
2022-08-01T17:33:22.025Z,99474.78
2022-08-01T17:35:49.275Z,99467.37
2022-08-01T17:38:17.055Z,99476.44
2022-08-01T17:40:44.308Z,99478.13
2022-08-01T17:43:11.560Z,99474.31
2022-08-01T17:45:50.898Z,99471.50
2022-08-01T17:48:19.234Z,99481.66
2022-08-01T17:50:47.075Z,99478.09
2022-08-01T17:53:14.771Z,99478.62
2022-08-01T17:55:54.000Z,99473.72
2022-08-01T17:58:50.199Z,99478.09
2022-08-01T18:01:12.583Z,99483.06
2022-08-01T18:03:40.856Z,99477.03
2022-08-01T18:06:09.258Z,99480.88
2022-08-01T18:08:36.455Z,99478.69
2022-08-01T18:11:03.969Z,99474.03
2022-08-01T18:13:31.170Z,99481.69
2022-08-01T18:15:58.512Z,99484.09
2022-08-01T18:18:33.670Z,99486.84
2022-08-01T18:21:01.729Z,99477.00
2022-08-01T18:23:29.161Z,99481.84
2022-08-01T18:25:56.489Z,99488.06
2022-08-01T18:28:31.686Z,99489.38
2022-08-01T18:31:02.832Z,99494.34
2022-08-01T18:33:30.074Z,99490.37
2022-08-01T18:36:01.756Z,99503.78
2022-08-01T18:38:32.900Z,99493.56
2022-08-01T18:41:00.857Z,99499.44
2022-08-01T18:43:28.128Z,99500.03
2022-08-01T18:45:58.566Z,99505.97
2022-08-01T18:48:25.736Z,99505.00
2022-08-01T18:50:54.059Z,99513.03
2022-08-01T18:53:23.874Z,99517.00
2022-08-01T18:55:51.199Z,99511.31
2022-08-01T18:58:18.602Z,99519.31
2022-08-01T19:00:46.090Z,99516.19
2022-08-01T19:03:15.357Z,99522.56
2022-08-01T19:05:43.074Z,99523.28
2022-08-01T19:08:11.587Z,99521.41
2022-08-01T19:10:39.246Z,99528.34
2022-08-01T19:13:07.816Z,99529.59
2022-08-01T19:15:35.508Z,99538.72
2022-08-01T19:18:03.262Z,99539.00
2022-08-01T19:20:30.722Z,99539.69
2022-08-01T19:22:58.389Z,99534.50
2022-08-01T19:25:25.577Z,99547.38
2022-08-01T19:27:52.745Z,99551.19
2022-08-01T19:30:20.221Z,99550.72
2022-08-01T19:32:47.599Z,99548.63
2022-08-01T19:35:16.899Z,99551.13
2022-08-01T19:37:47.267Z,99543.94
2022-08-01T19:40:27.436Z,99556.91
2022-08-01T19:42:56.427Z,99556.22
2022-08-01T19:45:24.661Z,99560.78
2022-08-01T19:47:56.679Z,99555.88
2022-08-01T19:50:26.220Z,99554.50
2022-08-01T19:52:54.906Z,99555.25
2022-08-01T19:55:23.318Z,99561.00
2022-08-01T19:58:24.163Z,99554.75
2022-08-01T20:00:39.762Z,99556.72
2022-08-01T20:03:07.604Z,99552.59
2022-08-01T20:05:36.440Z,99554.25
2022-08-01T20:08:03.749Z,99544.66
2022-08-01T20:10:31.839Z,99552.59
2022-08-01T20:12:59.028Z,99555.47
2022-08-01T20:15:26.207Z,99558.81
2022-08-01T20:17:54.485Z,99558.53
2022-08-01T20:20:21.817Z,99551.53
2022-08-01T20:22:49.050Z,99555.50
2022-08-01T20:25:17.540Z,99557.38
2022-08-01T20:27:44.748Z,99555.59
2022-08-01T20:30:12.068Z,99556.84
2022-08-01T20:32:40.336Z,99554.88
2022-08-01T20:35:07.811Z,99552.25
2022-08-01T20:38:05.903Z,99556.19
2022-08-01T20:40:26.827Z,99563.81
2022-08-01T20:42:54.244Z,99561.31
2022-08-01T20:45:21.885Z,99561.78
2022-08-01T20:47:50.315Z,99558.41
2022-08-01T20:50:53.720Z,99565.25
2022-08-01T20:53:26.085Z,99575.13
2022-08-01T20:55:59.248Z,99564.94
2022-08-01T20:58:33.596Z,99568.41
2022-08-01T21:01:01.085Z,99561.13
2022-08-01T21:03:30.578Z,99568.75
2022-08-01T21:06:02.161Z,99565.87
2022-08-01T21:08:35.682Z,99566.78
2022-08-01T21:11:02.850Z,99574.94
2022-08-01T21:13:50.656Z,99572.59
2022-08-01T21:16:24.409Z,99568.25
2022-08-01T21:19:19.041Z,99577.44
2022-08-01T21:21:51.641Z,99569.88
2022-08-01T21:24:19.477Z,99573.87
2022-08-01T21:26:46.956Z,99566.87
2022-08-01T21:29:14.322Z,99562.56
2022-08-01T21:31:41.987Z,99567.91
2022-08-01T21:34:09.617Z,99570.31
2022-08-01T21:36:36.996Z,99568.44
2022-08-01T21:39:05.728Z,99569.66
2022-08-01T21:42:05.032Z,99564.06
2022-08-01T21:44:20.400Z,99571.63
2022-08-01T21:46:48.328Z,99572.97
2022-08-01T21:49:15.633Z,99570.34
2022-08-01T21:51:45.624Z,99575.13
2022-08-01T21:54:24.693Z,99565.69
2022-08-01T21:56:57.593Z,99576.88
2022-08-01T21:59:46.924Z,99569.19
2022-08-01T22:02:18.063Z,99574.63
2022-08-01T22:04:48.576Z,99570.91
2022-08-01T22:07:17.207Z,99574.41
2022-08-01T22:09:45.221Z,99575.25
2022-08-01T22:12:17.873Z,99573.13
2022-08-01T22:14:46.736Z,99564.94
2022-08-01T22:17:15.140Z,99569.25
2022-08-01T22:19:46.302Z,99576.72
2022-08-01T22:22:42.478Z,99574.00
2022-08-01T22:25:02.364Z,99572.25
2022-08-01T22:28:06.650Z,99570.00
2022-08-01T22:30:17.707Z,99573.72
2022-08-01T22:32:45.737Z,99574.94
2022-08-01T22:35:32.933Z,99574.22
2022-08-01T22:38:01.477Z,99574.72
2022-08-01T22:40:28.829Z,99581.22
2022-08-01T22:43:00.195Z,99578.16
2022-08-01T22:45:37.792Z,99587.84
2022-08-01T22:48:17.470Z,99595.16
2022-08-01T22:50:46.546Z,99592.78
2022-08-01T22:53:24.550Z,99585.28
2022-08-01T22:55:58.440Z,99584.03
2022-08-01T22:58:26.825Z,99585.41
2022-08-01T23:00:54.753Z,99588.78
2022-08-01T23:03:28.710Z,99580.34
2022-08-01T23:05:56.895Z,99588.72
2022-08-01T23:08:24.078Z,99585.09
2022-08-01T23:10:51.259Z,99584.53
2022-08-01T23:13:19.635Z,99578.34
2022-08-01T23:15:52.417Z,99585.22
2022-08-01T23:18:20.423Z,99585.84
2022-08-01T23:20:47.648Z,99584.78
2022-08-01T23:23:15.183Z,99596.28
2022-08-01T23:25:43.285Z,99590.34
2022-08-01T23:28:10.440Z,99589.69
2022-08-01T23:30:37.616Z,99597.50
2022-08-01T23:33:05.086Z,99594.31
2022-08-01T23:35:38.841Z,99590.97
2022-08-01T23:38:07.203Z,99593.44
2022-08-01T23:40:34.714Z,99598.91
2022-08-01T23:43:02.622Z,99591.22
2022-08-01T23:45:38.183Z,99596.87
2022-08-01T23:48:17.453Z,99590.37
2022-08-01T23:50:44.917Z,99583.41
2022-08-01T23:53:12.885Z,99581.03
2022-08-01T23:55:40.644Z,99584.59
2022-08-01T23:58:11.673Z,99582.47
